Time;durP1;ratioP1;P1;durP2;ratioP2;P2;SDS_P1;SDS_P2;PMS_P1;PMS_P2;Temp;Humidity;BMP_temperature;BMP_pressure;BME280_temperature;BME280_humidity;BME280_pressure;Samples;Min_cycle;Max_cycle;Signal;HPM_P1;HPM_P2
2023/12/31 00:00:54;;;;;;;4.55;1.33;;;8.80;99.90;;;;;;5085573;28;20702;-92
2023/12/31 00:03:20;;;;;;;5.07;1.83;;;8.80;99.90;;;;;;5065288;28;20051;-93
2023/12/31 00:05:46;;;;;;;4.10;1.67;;;8.80;99.90;;;;;;5076442;28;20498;-91
2023/12/31 00:08:13;;;;;;;5.20;1.40;;;8.80;99.90;;;;;;5090071;28;20036;-90
2023/12/31 00:10:39;;;;;;;6.18;1.40;;;8.80;99.90;;;;;;5089563;28;20449;-90
2023/12/31 00:13:05;;;;;;;7.35;1.70;;;8.80;99.90;;;;;;5090840;28;20032;-90
2023/12/31 00:15:31;;;;;;;6.75;1.67;;;8.90;99.90;;;;;;5093422;28;20414;-90
2023/12/31 00:17:57;;;;;;;4.40;1.50;;;8.90;99.90;;;;;;5072984;28;20089;-90
2023/12/31 00:20:22;;;;;;;6.53;1.58;;;8.90;99.90;;;;;;5093095;28;20036;-91
2023/12/31 00:22:48;;;;;;;3.80;1.60;;;8.90;99.90;;;;;;5074966;28;20032;-91
2023/12/31 00:25:14;;;;;;;4.65;1.23;;;8.90;99.90;;;;;;5072099;28;20537;-91
2023/12/31 00:27:41;;;;;;;3.50;1.23;;;8.90;99.90;;;;;;5089434;28;20036;-90
2023/12/31 00:30:08;;;;;;;4.35;1.40;;;8.90;99.90;;;;;;5103224;28;20046;-91
2023/12/31 00:32:34;;;;;;;4.57;1.58;;;8.90;99.90;;;;;;5092759;28;20122;-91
2023/12/31 00:34:59;;;;;;;4.57;1.45;;;8.90;99.90;;;;;;5092552;28;20550;-90
2023/12/31 00:37:25;;;;;;;3.90;1.50;;;8.90;99.90;;;;;;5092020;28;20074;-91
2023/12/31 00:39:51;;;;;;;4.35;1.30;;;8.90;99.90;;;;;;5092467;28;20039;-90
2023/12/31 00:42:16;;;;;;;4.85;1.55;;;8.80;99.90;;;;;;5092458;28;20036;-90
2023/12/31 00:44:42;;;;;;;2.60;1.08;;;8.90;99.90;;;;;;5091858;28;20058;-91
2023/12/31 00:47:08;;;;;;;4.20;1.40;;;8.90;99.90;;;;;;5091765;28;20043;-91
2023/12/31 00:49:33;;;;;;;4.40;1.38;;;8.90;99.90;;;;;;5082678;28;20034;-91
2023/12/31 00:51:59;;;;;;;7.18;1.75;;;8.90;99.90;;;;;;5068700;28;20044;-91
2023/12/31 00:54:25;;;;;;;3.75;1.20;;;8.90;99.90;;;;;;5091562;28;20028;-91
2023/12/31 00:56:51;;;;;;;3.78;1.30;;;8.90;99.90;;;;;;5092183;28;20039;-91
2023/12/31 00:59:16;;;;;;;5.75;1.80;;;9.00;99.90;;;;;;5109106;28;20079;-91
2023/12/31 01:01:42;;;;;;;5.22;2.05;;;8.90;99.90;;;;;;5092597;28;20449;-91
2023/12/31 01:04:08;;;;;;;4.78;1.42;;;9.00;99.90;;;;;;5091689;28;20035;-91
2023/12/31 01:06:33;;;;;;;4.65;1.48;;;9.00;99.90;;;;;;5109041;28;20032;-91
2023/12/31 01:08:59;;;;;;;5.80;1.67;;;9.00;99.90;;;;;;5105894;28;20032;-91
2023/12/31 01:11:27;;;;;;;5.50;1.60;;;9.00;99.90;;;;;;5100595;28;20041;-90
2023/12/31 01:13:53;;;;;;;4.32;1.50;;;9.00;99.90;;;;;;5091692;28;20036;-90
2023/12/31 01:16:18;;;;;;;3.47;1.13;;;9.00;99.90;;;;;;5091937;28;20044;-90
2023/12/31 01:18:44;;;;;;;4.75;1.45;;;9.00;99.90;;;;;;5091938;28;20480;-91
2023/12/31 01:21:10;;;;;;;4.88;1.50;;;9.00;99.90;;;;;;5110340;28;20039;-89
2023/12/31 01:23:35;;;;;;;6.65;1.98;;;9.00;99.90;;;;;;5109047;28;20074;-91
2023/12/31 01:26:02;;;;;;;4.50;1.55;;;9.00;99.90;;;;;;5091935;28;20559;-92
2023/12/31 01:28:27;;;;;;;6.43;1.55;;;9.00;99.90;;;;;;5091391;28;20536;-91
2023/12/31 01:30:53;;;;;;;4.78;1.42;;;9.00;99.90;;;;;;5108583;28;20079;-91
2023/12/31 01:33:19;;;;;;;6.28;1.80;;;9.00;99.90;;;;;;5081146;28;20047;-92
2023/12/31 01:35:44;;;;;;;4.43;2.00;;;9.00;99.90;;;;;;5088982;28;20048;-91
2023/12/31 01:38:10;;;;;;;4.70;1.52;;;9.00;99.90;;;;;;5073205;28;20036;-91
2023/12/31 01:40:36;;;;;;;5.07;1.70;;;8.90;99.90;;;;;;5072910;28;20040;-91
2023/12/31 01:43:02;;;;;;;5.35;1.45;;;9.00;99.90;;;;;;5080081;28;20078;-91
2023/12/31 01:45:28;;;;;;;4.75;1.77;;;8.90;99.90;;;;;;5091822;28;20528;-92
2023/12/31 01:47:54;;;;;;;5.40;1.67;;;8.90;99.90;;;;;;5092012;28;20043;-92
2023/12/31 01:50:21;;;;;;;4.72;1.35;;;8.90;99.90;;;;;;5091499;28;20039;-91
2023/12/31 01:52:47;;;;;;;4.90;1.63;;;8.90;99.90;;;;;;5091693;28;20124;-92
2023/12/31 01:55:14;;;;;;;4.18;1.40;;;8.90;99.90;;;;;;5107119;28;20035;-92
2023/12/31 01:57:41;;;;;;;4.43;1.50;;;8.90;99.90;;;;;;5103040;28;20040;-91
2023/12/31 02:00:08;;;;;;;3.92;1.27;;;8.90;99.90;;;;;;5090564;28;20036;-90
2023/12/31 02:02:34;;;;;;;5.05;1.40;;;8.90;99.90;;;;;;5095558;28;20383;-91
2023/12/31 02:05:00;;;;;;;3.30;1.13;;;8.90;99.90;;;;;;5094878;28;20478;-91
2023/12/31 02:07:26;;;;;;;3.40;1.25;;;8.90;99.90;;;;;;5093440;28;20044;-90
2023/12/31 02:09:52;;;;;;;4.30;1.40;;;8.90;99.90;;;;;;5105046;28;20040;-91
2023/12/31 02:12:18;;;;;;;3.53;1.00;;;8.90;99.90;;;;;;5092590;28;20450;-91
2023/12/31 02:14:44;;;;;;;2.42;1.15;;;8.90;99.90;;;;;;5105722;28;20036;-91
2023/12/31 02:17:09;;;;;;;4.93;1.30;;;8.90;99.90;;;;;;5095227;28;20498;-91
2023/12/31 02:19:35;;;;;;;2.55;0.93;;;8.90;99.90;;;;;;5094869;28;20126;-90
2023/12/31 02:22:02;;;;;;;2.95;0.88;;;8.90;99.90;;;;;;5095149;28;20035;-90
2023/12/31 02:24:34;;;;;;;2.38;0.85;;;8.90;99.90;;;;;;5094364;28;20036;-91
2023/12/31 02:26:59;;;;;;;3.20;0.90;;;8.90;99.90;;;;;;5094802;28;20032;-91
2023/12/31 02:29:25;;;;;;;2.92;0.90;;;8.90;99.90;;;;;;5086090;28;20605;-91
2023/12/31 02:31:50;;;;;;;4.40;1.00;;;8.90;99.90;;;;;;5095088;28;20031;-92
2023/12/31 02:34:16;;;;;;;2.65;1.02;;;8.90;99.90;;;;;;5094882;28;20660;-92
2023/12/31 02:36:42;;;;;;;2.42;0.95;;;8.90;99.90;;;;;;5089746;28;20043;-94
2023/12/31 02:39:07;;;;;;;2.95;1.17;;;8.90;99.90;;;;;;5083356;28;20682;-91
2023/12/31 02:41:34;;;;;;;3.78;1.27;;;8.90;99.90;;;;;;5108046;28;20039;-91
2023/12/31 02:44:01;;;;;;;2.65;0.90;;;8.90;99.90;;;;;;5081164;28;20035;-91
2023/12/31 02:46:26;;;;;;;4.50;1.70;;;8.90;99.90;;;;;;5093887;28;20043;-91
2023/12/31 02:48:52;;;;;;;2.97;1.08;;;9.00;99.90;;;;;;5094176;28;20040;-91
2023/12/31 02:51:18;;;;;;;5.75;1.20;;;9.00;99.90;;;;;;5094028;28;20446;-91
2023/12/31 02:53:43;;;;;;;2.72;1.00;;;8.90;99.90;;;;;;5094002;28;20046;-91
2023/12/31 02:56:09;;;;;;;4.68;1.13;;;8.90;99.90;;;;;;5093359;28;20131;-91
2023/12/31 02:58:35;;;;;;;2.92;1.00;;;8.90;99.90;;;;;;5112020;28;20046;-90
2023/12/31 03:01:00;;;;;;;2.88;0.98;;;8.80;99.90;;;;;;5093563;28;20050;-91
2023/12/31 03:03:26;;;;;;;2.35;0.90;;;8.80;99.90;;;;;;5093403;28;20123;-91
2023/12/31 03:05:52;;;;;;;1.40;0.68;;;8.80;99.90;;;;;;5110823;28;20413;-91
2023/12/31 03:08:17;;;;;;;4.68;1.30;;;8.80;99.90;;;;;;5089823;28;20035;-91
2023/12/31 03:10:43;;;;;;;2.88;0.88;;;8.80;99.90;;;;;;5109852;28;20085;-91
2023/12/31 03:13:09;;;;;;;2.30;1.02;;;8.80;99.90;;;;;;5111996;28;20032;-91
2023/12/31 03:15:34;;;;;;;3.15;1.00;;;8.80;99.90;;;;;;5111064;28;20502;-91
2023/12/31 03:18:00;;;;;;;4.57;1.10;;;8.70;99.90;;;;;;5111165;28;20039;-91
2023/12/31 03:20:25;;;;;;;2.55;0.90;;;8.70;99.90;;;;;;5110973;28;20042;-91
2023/12/31 03:22:51;;;;;;;2.22;0.90;;;8.70;99.90;;;;;;5110844;28;20455;-91
2023/12/31 03:25:17;;;;;;;2.33;0.98;;;8.70;99.90;;;;;;5111804;28;20032;-91
2023/12/31 03:27:45;;;;;;;3.70;0.98;;;8.70;99.90;;;;;;5093219;28;20039;-91
2023/12/31 03:30:11;;;;;;;5.57;1.20;;;8.70;99.90;;;;;;5110515;28;20047;-90
2023/12/31 03:32:37;;;;;;;4.57;1.20;;;8.60;99.90;;;;;;5091295;28;20032;-91
2023/12/31 03:35:03;;;;;;;3.38;1.23;;;8.60;99.90;;;;;;5089356;28;20414;-90
2023/12/31 03:37:30;;;;;;;1.88;0.85;;;8.60;99.90;;;;;;5093556;28;20043;-90
2023/12/31 03:39:56;;;;;;;3.03;0.90;;;8.60;99.90;;;;;;5093758;28;20701;-90
2023/12/31 03:42:21;;;;;;;3.10;1.13;;;8.60;99.90;;;;;;5110640;28;20104;-89
2023/12/31 03:44:47;;;;;;;3.95;1.10;;;8.60;99.90;;;;;;5093240;28;20043;-90
2023/12/31 03:47:13;;;;;;;3.97;1.35;;;8.60;99.90;;;;;;5093490;28;20040;-90
2023/12/31 03:49:39;;;;;;;4.70;1.17;;;8.60;99.90;;;;;;5093459;28;20525;-91
2023/12/31 03:52:06;;;;;;;4.70;1.15;;;8.60;99.90;;;;;;5110171;28;20039;-90
2023/12/31 03:54:32;;;;;;;4.03;1.25;;;8.60;99.90;;;;;;5092762;28;20031;-91
2023/12/31 03:56:58;;;;;;;3.42;1.08;;;8.60;99.90;;;;;;5093247;28;20517;-91
2023/12/31 03:59:23;;;;;;;3.03;1.27;;;8.60;99.90;;;;;;5093237;28;20044;-91
2023/12/31 04:01:55;;;;;;;3.83;1.42;;;8.60;99.90;;;;;;5093395;28;20616;-90
2023/12/31 04:04:21;;;;;;;2.28;1.02;;;8.60;99.90;;;;;;5109990;28;20082;-90
2023/12/31 04:06:47;;;;;;;6.28;1.65;;;8.60;99.90;;;;;;5110131;28;20108;-91
2023/12/31 04:09:13;;;;;;;4.32;1.20;;;8.50;99.90;;;;;;5098496;28;20603;-91
2023/12/31 04:11:38;;;;;;;3.67;1.20;;;8.60;99.90;;;;;;5088884;28;20042;-91
2023/12/31 04:14:04;;;;;;;3.63;1.10;;;8.50;99.90;;;;;;5089416;28;20047;-90
2023/12/31 04:16:30;;;;;;;3.03;1.25;;;8.50;99.90;;;;;;5110009;28;20047;-90
2023/12/31 04:18:55;;;;;;;6.75;2.10;;;8.60;99.90;;;;;;5110016;28;20037;-91
2023/12/31 04:21:21;;;;;;;3.42;1.20;;;8.50;99.90;;;;;;5092605;28;20592;-91
2023/12/31 04:23:47;;;;;;;3.00;1.30;;;8.60;99.90;;;;;;5091782;28;20039;-91
2023/12/31 04:26:12;;;;;;;3.38;1.25;;;8.50;99.90;;;;;;5092508;28;20044;-90
2023/12/31 04:28:38;;;;;;;2.03;0.90;;;8.50;99.90;;;;;;5091881;28;20072;-91
2023/12/31 04:31:04;;;;;;;2.95;1.27;;;8.50;99.90;;;;;;5109148;28;20031;-90
2023/12/31 04:33:29;;;;;;;3.58;1.20;;;8.50;99.90;;;;;;5108473;28;20036;-90
2023/12/31 04:35:55;;;;;;;3.67;1.42;;;8.50;99.90;;;;;;5108371;28;20115;-90
2023/12/31 04:38:20;;;;;;;3.20;1.20;;;8.50;99.90;;;;;;5082422;28;20051;-91
2023/12/31 04:40:46;;;;;;;3.10;1.20;;;8.50;99.90;;;;;;5109535;28;20035;-90
2023/12/31 04:43:12;;;;;;;4.85;1.55;;;8.50;99.90;;;;;;5091002;28;20423;-90
2023/12/31 04:45:37;;;;;;;5.18;1.85;;;8.50;99.90;;;;;;5092017;28;20047;-91
2023/12/31 04:48:03;;;;;;;4.88;1.45;;;8.50;99.90;;;;;;5092554;28;20036;-91
2023/12/31 04:50:29;;;;;;;4.10;1.52;;;8.50;99.90;;;;;;5089309;28;20039;-91
2023/12/31 04:52:55;;;;;;;5.32;1.52;;;8.50;99.90;;;;;;5091824;28;20050;-92
2023/12/31 04:55:22;;;;;;;4.47;1.40;;;8.50;99.90;;;;;;5109516;28;20036;-90
2023/12/31 04:57:49;;;;;;;3.30;1.17;;;8.50;99.90;;;;;;5091956;28;20133;-91
2023/12/31 05:00:15;;;;;;;3.70;1.13;;;8.50;99.90;;;;;;5109546;28;20539;-91
2023/12/31 05:02:41;;;;;;;6.13;1.50;;;8.50;99.90;;;;;;5116161;28;20040;-91
2023/12/31 05:05:07;;;;;;;3.13;1.10;;;8.50;99.90;;;;;;5100447;28;20046;-91
2023/12/31 05:07:32;;;;;;;4.68;1.23;;;8.50;99.90;;;;;;5102757;28;20096;-91
2023/12/31 05:09:58;;;;;;;3.40;1.20;;;8.50;99.90;;;;;;5080069;28;20281;-90
2023/12/31 05:12:24;;;;;;;1.35;0.90;;;8.50;99.90;;;;;;5075206;28;20040;-91
2023/12/31 05:14:50;;;;;;;3.42;1.30;;;8.50;99.90;;;;;;5101916;28;20039;-90
2023/12/31 05:17:15;;;;;;;4.40;1.45;;;8.50;99.90;;;;;;5090527;28;20043;-91
2023/12/31 05:19:41;;;;;;;4.00;1.38;;;8.50;99.90;;;;;;5085322;28;20044;-91
2023/12/31 05:22:07;;;;;;;4.03;1.48;;;8.50;99.90;;;;;;5083360;28;20043;-91
2023/12/31 05:24:33;;;;;;;4.65;1.50;;;8.50;99.90;;;;;;5091961;28;20425;-91
2023/12/31 05:26:58;;;;;;;4.38;1.30;;;8.50;99.90;;;;;;5091738;28;20699;-90
2023/12/31 05:29:24;;;;;;;5.88;1.38;;;8.50;99.90;;;;;;5091644;28;20529;-90
2023/12/31 05:31:50;;;;;;;3.40;1.20;;;8.50;99.90;;;;;;5085338;28;20036;-91
2023/12/31 05:34:15;;;;;;;5.57;1.75;;;8.50;99.90;;;;;;5098219;28;20115;-91
2023/12/31 05:36:41;;;;;;;3.85;1.60;;;8.50;99.90;;;;;;5075697;28;20047;-91
2023/12/31 05:39:08;;;;;;;4.40;1.70;;;8.50;99.90;;;;;;5075509;28;20044;-91
2023/12/31 05:41:33;;;;;;;4.43;1.60;;;8.50;99.90;;;;;;5094179;28;20044;-91
2023/12/31 05:43:59;;;;;;;3.78;1.40;;;8.50;99.90;;;;;;5082773;28;20035;-91
2023/12/31 05:46:25;;;;;;;3.88;1.60;;;8.50;99.90;;;;;;5112477;28;20089;-91
2023/12/31 05:48:50;;;;;;;4.22;1.42;;;8.60;99.90;;;;;;5089507;28;20131;-91
2023/12/31 05:51:16;;;;;;;4.47;1.38;;;8.60;99.90;;;;;;5110486;28;20040;-91
2023/12/31 05:53:41;;;;;;;2.92;1.48;;;8.60;99.90;;;;;;5095538;28;20043;-91
2023/12/31 05:56:07;;;;;;;4.75;1.70;;;8.60;99.90;;;;;;5112481;28;20043;-90
2023/12/31 05:58:33;;;;;;;4.40;1.55;;;8.60;99.90;;;;;;5095780;28;20036;-90
2023/12/31 06:01:00;;;;;;;6.65;1.90;;;8.60;99.90;;;;;;5095785;28;20119;-91
2023/12/31 06:03:25;;;;;;;5.47;1.73;;;8.60;99.90;;;;;;5112255;28;20551;-90
2023/12/31 06:05:51;;;;;;;4.28;1.38;;;8.60;99.90;;;;;;5112338;28;20533;-90
2023/12/31 06:08:16;;;;;;;5.90;1.77;;;8.50;99.90;;;;;;5098588;28;20504;-90
2023/12/31 06:10:42;;;;;;;5.70;2.03;;;8.60;99.90;;;;;;5111372;28;20047;-90
2023/12/31 06:13:08;;;;;;;6.05;2.28;;;8.60;99.90;;;;;;5094996;28;20555;-91
2023/12/31 06:15:34;;;;;;;7.72;2.17;;;8.60;99.90;;;;;;5112121;28;20067;-91
2023/12/31 06:17:59;;;;;;;4.72;1.67;;;8.60;99.90;;;;;;5112200;28;20035;-90
2023/12/31 06:20:25;;;;;;;4.90;1.67;;;8.60;99.90;;;;;;5086535;28;20047;-90
2023/12/31 06:22:50;;;;;;;5.75;2.15;;;8.60;99.90;;;;;;5097229;28;20064;-90
2023/12/31 06:25:16;;;;;;;4.50;1.55;;;8.60;99.90;;;;;;5084044;28;20039;-91
2023/12/31 06:27:42;;;;;;;5.85;1.80;;;8.60;99.90;;;;;;5111866;28;20040;-90
2023/12/31 06:30:08;;;;;;;4.38;1.70;;;8.60;99.90;;;;;;5094910;28;20062;-91
2023/12/31 06:32:34;;;;;;;4.85;2.00;;;8.60;99.90;;;;;;5111738;28;20049;-91
2023/12/31 06:34:59;;;;;;;5.03;1.92;;;8.60;99.90;;;;;;5095292;28;20036;-91
2023/12/31 06:37:25;;;;;;;4.53;1.75;;;8.60;99.90;;;;;;5092397;28;20102;-91
2023/12/31 06:39:51;;;;;;;6.30;1.80;;;8.60;99.90;;;;;;5076285;28;20096;-90
2023/12/31 06:42:17;;;;;;;5.75;2.00;;;8.60;99.90;;;;;;5075670;28;20069;-91
2023/12/31 06:44:43;;;;;;;6.35;2.05;;;8.60;99.90;;;;;;5087578;28;20452;-90
2023/12/31 06:47:08;;;;;;;5.15;1.70;;;8.60;99.90;;;;;;5093495;28;20040;-90
2023/12/31 06:49:34;;;;;;;5.75;2.03;;;8.60;99.90;;;;;;5112939;28;20081;-92
2023/12/31 06:52:00;;;;;;;5.43;1.70;;;8.60;99.90;;;;;;5090958;28;20028;-90
2023/12/31 06:54:27;;;;;;;3.53;1.40;;;8.60;99.90;;;;;;5110794;28;20035;-90
2023/12/31 06:56:53;;;;;;;5.30;1.88;;;8.60;99.90;;;;;;5111214;28;20118;-90
2023/12/31 06:59:18;;;;;;;5.65;2.05;;;8.60;99.90;;;;;;5092186;28;20538;-90
2023/12/31 07:01:44;;;;;;;5.38;2.05;;;8.60;99.90;;;;;;5088135;28;20036;-90
2023/12/31 07:04:10;;;;;;;6.57;1.73;;;8.60;99.90;;;;;;5093527;28;20043;-90
2023/12/31 07:06:35;;;;;;;5.45;1.75;;;8.60;99.90;;;;;;5094525;28;20417;-90
2023/12/31 07:09:01;;;;;;;6.40;2.20;;;8.60;99.90;;;;;;5077848;28;20414;-90
2023/12/31 07:11:27;;;;;;;5.50;1.90;;;8.70;99.90;;;;;;5092652;28;20077;-90
2023/12/31 07:13:52;;;;;;;5.75;2.20;;;8.60;99.90;;;;;;5094140;28;20407;-90
2023/12/31 07:16:18;;;;;;;6.72;1.67;;;8.70;99.90;;;;;;5093905;28;20043;-90
2023/12/31 07:18:44;;;;;;;5.13;2.45;;;8.70;99.90;;;;;;5104297;28;20046;-91
2023/12/31 07:21:10;;;;;;;5.22;1.80;;;8.70;99.90;;;;;;5076928;28;20410;-90
2023/12/31 07:23:36;;;;;;;3.22;1.40;;;8.70;99.90;;;;;;5081872;28;20040;-90
2023/12/31 07:26:03;;;;;;;6.20;2.28;;;8.70;99.90;;;;;;5094155;28;20039;-90
2023/12/31 07:28:29;;;;;;;5.72;2.13;;;8.70;99.90;;;;;;5065057;28;20039;-90
2023/12/31 07:30:55;;;;;;;5.15;1.65;;;8.70;99.90;;;;;;5075926;28;20089;-90
2023/12/31 07:33:21;;;;;;;6.20;1.67;;;8.70;99.90;;;;;;5065408;28;20404;-91
2023/12/31 07:35:47;;;;;;;5.68;1.73;;;8.70;99.90;;;;;;5088557;28;20067;-91
2023/12/31 07:38:13;;;;;;;6.00;1.95;;;8.70;99.90;;;;;;5068289;28;20031;-90
2023/12/31 07:40:38;;;;;;;5.55;1.75;;;8.80;99.90;;;;;;5093024;28;20031;-91
2023/12/31 07:43:04;;;;;;;4.82;1.50;;;8.80;99.90;;;;;;5093079;28;20032;-91
2023/12/31 07:45:31;;;;;;;4.20;1.52;;;8.80;99.90;;;;;;5089630;28;20039;-91
2023/12/31 07:47:56;;;;;;;4.63;1.60;;;8.80;99.90;;;;;;5088914;28;20040;-91
2023/12/31 07:50:22;;;;;;;6.32;1.75;;;8.80;99.90;;;;;;5098974;28;20043;-91
2023/12/31 07:52:48;;;;;;;4.28;1.50;;;8.80;99.90;;;;;;5087166;28;20032;-91
2023/12/31 07:55:14;;;;;;;5.47;1.52;;;8.90;99.90;;;;;;5090858;28;20042;-91
2023/12/31 07:57:39;;;;;;;5.05;1.77;;;8.80;99.90;;;;;;5095170;28;20118;-91
2023/12/31 08:00:07;;;;;;;5.53;1.67;;;8.90;99.90;;;;;;5064601;28;20515;-91
2023/12/31 08:02:32;;;;;;;4.57;1.80;;;8.90;99.90;;;;;;5069149;28;20040;-90
2023/12/31 08:04:58;;;;;;;4.85;1.67;;;8.90;99.90;;;;;;5071215;28;20047;-90
2023/12/31 08:07:24;;;;;;;6.22;1.70;;;8.90;99.90;;;;;;5071259;28;20059;-89
2023/12/31 08:09:49;;;;;;;4.68;1.50;;;8.90;99.90;;;;;;5086523;28;20115;-91
2023/12/31 08:12:15;;;;;;;5.35;1.80;;;9.00;99.90;;;;;;5109160;28;20135;-91
2023/12/31 08:14:41;;;;;;;5.03;1.85;;;9.00;99.90;;;;;;5092874;28;20078;-91
2023/12/31 08:17:07;;;;;;;6.35;2.50;;;9.00;99.90;;;;;;5084262;28;20566;-91
2023/12/31 08:19:33;;;;;;;5.28;1.73;;;9.00;99.90;;;;;;5091072;28;20499;-91
2023/12/31 08:21:58;;;;;;;4.30;1.38;;;9.00;99.90;;;;;;5069299;28;20032;-90
2023/12/31 08:24:24;;;;;;;4.65;1.70;;;9.00;99.90;;;;;;5092380;28;20039;-90
2023/12/31 08:26:50;;;;;;;5.38;1.85;;;9.00;99.90;;;;;;5108712;28;20059;-90
2023/12/31 08:29:16;;;;;;;3.22;1.35;;;9.00;99.90;;;;;;5086017;28;20451;-91
2023/12/31 08:31:42;;;;;;;3.85;1.40;;;9.00;99.90;;;;;;5098693;28;20066;-92
2023/12/31 08:34:10;;;;;;;5.70;1.65;;;9.00;99.90;;;;;;5100769;28;20089;-92
2023/12/31 08:36:36;;;;;;;4.63;1.30;;;9.00;99.90;;;;;;5089291;28;20040;-93
2023/12/31 08:39:02;;;;;;;5.68;1.98;;;9.00;99.90;;;;;;5072625;28;20498;-91
2023/12/31 08:41:28;;;;;;;6.53;2.03;;;9.00;99.90;;;;;;5093415;28;20040;-90
2023/12/31 08:43:53;;;;;;;5.00;1.63;;;9.00;99.90;;;;;;5108571;28;20039;-92
2023/12/31 08:46:19;;;;;;;4.57;1.92;;;9.10;99.90;;;;;;5107493;28;20047;-92
2023/12/31 08:48:44;;;;;;;3.95;1.35;;;9.10;99.90;;;;;;5094628;28;20533;-92
2023/12/31 08:51:10;;;;;;;4.30;1.50;;;9.10;99.90;;;;;;5080536;28;20027;-92
2023/12/31 08:53:37;;;;;;;3.95;1.45;;;9.10;99.90;;;;;;5109545;28;20047;-91
2023/12/31 08:56:03;;;;;;;4.25;1.50;;;9.10;99.90;;;;;;5091935;28;20054;-92
2023/12/31 08:58:29;;;;;;;3.55;1.35;;;9.10;99.90;;;;;;5084068;28;20040;-91
2023/12/31 09:00:57;;;;;;;3.83;1.50;;;9.10;99.90;;;;;;5109031;28;20123;-91
2023/12/31 09:03:22;;;;;;;3.53;1.17;;;9.10;99.90;;;;;;5092232;28;20075;-92
2023/12/31 09:05:48;;;;;;;5.00;1.80;;;9.10;99.90;;;;;;5091987;28;20143;-92
2023/12/31 09:08:14;;;;;;;4.10;1.55;;;9.20;99.90;;;;;;5088911;28;20047;-91
2023/12/31 09:10:39;;;;;;;4.15;1.30;;;9.20;99.90;;;;;;5108322;28;20067;-91
2023/12/31 09:13:05;;;;;;;4.63;1.52;;;9.20;99.90;;;;;;5109353;28;20043;-92
2023/12/31 09:15:31;;;;;;;5.75;1.77;;;9.20;99.90;;;;;;5084013;28;20486;-91
2023/12/31 09:17:56;;;;;;;3.55;1.20;;;9.30;99.90;;;;;;5109386;28;20073;-91
2023/12/31 09:20:22;;;;;;;4.97;1.45;;;9.30;99.90;;;;;;5108244;28;20088;-91
2023/12/31 09:22:52;;;;;;;3.95;1.73;;;9.30;99.90;;;;;;5085421;28;20086;-91
2023/12/31 09:25:18;;;;;;;7.32;1.63;;;9.30;99.90;;;;;;5097242;28;20070;-91
2023/12/31 09:27:43;;;;;;;3.90;1.73;;;9.30;99.90;;;;;;5105327;28;20047;-90
2023/12/31 09:30:09;;;;;;;3.92;1.60;;;9.30;99.90;;;;;;5077235;28;20529;-92
2023/12/31 09:32:35;;;;;;;4.28;1.40;;;9.40;99.90;;;;;;5094908;28;20556;-92
2023/12/31 09:35:01;;;;;;;5.35;2.10;;;9.40;99.90;;;;;;5071359;28;20887;-92
2023/12/31 09:37:27;;;;;;;4.60;1.67;;;9.40;99.90;;;;;;5071681;28;20040;-90
2023/12/31 09:39:53;;;;;;;3.95;1.33;;;9.50;99.90;;;;;;5089889;28;20032;-92
2023/12/31 09:42:24;;;;;;;4.53;1.60;;;9.50;99.90;;;;;;5071174;28;20047;-91
2023/12/31 09:44:50;;;;;;;3.08;1.02;;;9.50;99.90;;;;;;5086066;28;20097;-91
2023/12/31 09:47:16;;;;;;;4.57;1.42;;;9.60;99.90;;;;;;5098698;28;20123;-90
2023/12/31 09:49:44;;;;;;;6.13;1.88;;;9.60;99.90;;;;;;5103171;28;20082;-91
2023/12/31 09:52:10;;;;;;;5.38;1.70;;;9.60;99.90;;;;;;5108809;28;20031;-91
2023/12/31 09:54:38;;;;;;;5.28;1.63;;;9.70;99.90;;;;;;5082695;28;20418;-91
2023/12/31 09:57:06;;;;;;;5.78;1.83;;;9.70;99.90;;;;;;5091353;28;20039;-91
2023/12/31 09:59:31;;;;;;;5.55;1.73;;;9.80;99.90;;;;;;5091843;28;20082;-91
2023/12/31 10:02:03;;;;;;;5.03;1.58;;;9.80;99.90;;;;;;5091762;28;20042;-91
2023/12/31 10:04:30;;;;;;;6.17;2.20;;;9.80;99.90;;;;;;5108322;28;20111;-91
2023/12/31 10:06:56;;;;;;;5.20;1.70;;;9.80;99.90;;;;;;5082654;28;20855;-92
2023/12/31 10:09:33;;;;;;;3.60;1.55;;;9.80;99.90;;;;;;5069438;28;20044;-93
2023/12/31 10:12:00;;;;;;;3.88;1.60;;;9.80;99.90;;;;;;5101223;28;20481;-91
2023/12/31 10:14:26;;;;;;;4.10;1.60;;;9.90;99.90;;;;;;5090663;28;20070;-91
2023/12/31 10:16:52;;;;;;;5.55;1.73;;;9.90;99.90;;;;;;5091039;28;20495;-91
2023/12/31 10:19:17;;;;;;;5.50;2.08;;;9.90;99.90;;;;;;5090850;28;20074;-92
2023/12/31 10:21:43;;;;;;;4.40;1.63;;;10.00;99.90;;;;;;5091976;28;20046;-91
2023/12/31 10:24:10;;;;;;;3.90;1.52;;;10.00;99.90;;;;;;5093429;28;20047;-91
2023/12/31 10:26:36;;;;;;;4.95;1.65;;;10.00;99.90;;;;;;5091274;28;20499;-92
2023/12/31 10:29:04;;;;;;;5.72;2.00;;;10.10;99.90;;;;;;5097261;28;20027;-91
2023/12/31 10:31:31;;;;;;;3.58;1.45;;;10.20;99.90;;;;;;5095086;28;20039;-92
2023/12/31 10:34:11;;;;;;;7.80;3.00;;;10.20;99.90;;;;;;5104388;28;20040;-91
2023/12/31 10:36:37;;;;;;;4.75;1.67;;;10.40;99.90;;;;;;5091806;28;20051;-91
2023/12/31 10:39:03;;;;;;;4.15;1.70;;;10.40;99.90;;;;;;5092304;28;20036;-90
2023/12/31 10:41:34;;;;;;;4.38;1.52;;;10.40;99.90;;;;;;5082563;28;20486;-91
2023/12/31 10:44:03;;;;;;;5.22;1.92;;;10.40;99.90;;;;;;5101095;28;20035;-91
2023/12/31 10:46:32;;;;;;;6.70;2.13;;;10.40;99.90;;;;;;5101811;28;20039;-92
2023/12/31 10:49:03;;;;;;;5.82;1.80;;;10.40;99.90;;;;;;5067888;28;20036;-91
2023/12/31 10:51:28;;;;;;;5.10;1.90;;;10.40;99.90;;;;;;5067770;28;20490;-91
2023/12/31 10:53:58;;;;;;;4.30;1.67;;;10.40;99.90;;;;;;5106890;28;20036;-91
2023/12/31 10:56:27;;;;;;;5.25;1.50;;;10.40;99.90;;;;;;5108693;28;20075;-92
2023/12/31 10:58:58;;;;;;;5.20;1.70;;;10.40;99.90;;;;;;5089343;28;20071;-93
2023/12/31 11:01:25;;;;;;;5.75;2.15;;;10.40;99.90;;;;;;5086051;28;20089;-90
2023/12/31 11:03:56;;;;;;;7.22;2.13;;;10.30;99.90;;;;;;5085982;28;20054;-90
2023/12/31 11:06:22;;;;;;;3.28;1.40;;;10.40;99.90;;;;;;5108983;28;20040;-91
2023/12/31 11:08:49;;;;;;;5.55;1.70;;;10.40;99.90;;;;;;5066538;28;20044;-91
2023/12/31 11:11:15;;;;;;;5.18;1.65;;;10.40;99.90;;;;;;5103397;28;20032;-91
2023/12/31 11:13:45;;;;;;;3.78;1.48;;;10.50;99.90;;;;;;5073321;28;20040;-92
2023/12/31 11:16:40;;;;;;;5.32;1.52;;;10.50;99.90;;;;;;5074460;28;20040;-91
2023/12/31 11:19:49;;;;;;;5.43;1.83;;;10.60;99.90;;;;;;5097436;28;20124;-90
2023/12/31 11:22:21;;;;;;;7.38;2.38;;;10.60;99.90;;;;;;5085479;28;20072;-90
2023/12/31 11:24:47;;;;;;;5.22;1.55;;;10.60;99.90;;;;;;5110024;28;20043;-91
2023/12/31 11:27:16;;;;;;;4.85;1.67;;;10.60;99.90;;;;;;5091688;28;20043;-89
2023/12/31 11:29:43;;;;;;;6.55;2.20;;;10.60;99.90;;;;;;5091767;28;20036;-91
2023/12/31 11:32:09;;;;;;;6.20;1.83;;;10.60;99.90;;;;;;5108265;28;20442;-90
2023/12/31 11:34:40;;;;;;;5.60;2.00;;;10.50;99.90;;;;;;5108571;28;20031;-90
2023/12/31 11:37:09;;;;;;;4.97;1.75;;;10.50;99.90;;;;;;5101909;28;20135;-91
2023/12/31 11:39:35;;;;;;;5.88;1.90;;;10.50;99.90;;;;;;5094697;28;20039;-91
2023/12/31 11:42:11;;;;;;;6.85;2.10;;;10.50;99.90;;;;;;5111772;28;20042;-91
2023/12/31 11:44:37;;;;;;;5.57;1.58;;;10.50;99.90;;;;;;5111179;28;20582;-91
2023/12/31 11:47:11;;;;;;;3.30;1.30;;;10.50;99.90;;;;;;5102773;28;20139;-91
2023/12/31 11:49:40;;;;;;;3.08;1.10;;;10.50;99.90;;;;;;5078901;28;20044;-91
2023/12/31 11:52:08;;;;;;;3.67;1.05;;;10.50;99.90;;;;;;5110394;28;20042;-91
2023/12/31 11:54:33;;;;;;;1.58;0.63;;;10.40;99.90;;;;;;5106271;28;20040;-92
2023/12/31 11:57:00;;;;;;;1.13;0.40;;;10.20;99.90;;;;;;5106192;28;20035;-91
2023/12/31 11:59:26;;;;;;;0.93;0.22;;;9.80;99.90;;;;;;5093204;28;20134;-91
2023/12/31 12:01:53;;;;;;;0.55;0.22;;;9.40;99.90;;;;;;5110172;28;20040;-91
2023/12/31 12:04:19;;;;;;;2.80;1.05;;;9.20;99.90;;;;;;5093054;28;20104;-89
2023/12/31 12:06:46;;;;;;;1.10;0.30;;;9.00;99.90;;;;;;5099809;28;20525;-91
2023/12/31 12:09:11;;;;;;;0.85;0.20;;;8.90;99.90;;;;;;5099299;28;20071;-89
2023/12/31 12:11:43;;;;;;;1.75;0.43;;;8.90;99.90;;;;;;5110608;28;20078;-91
2023/12/31 12:14:11;;;;;;;0.90;0.30;;;8.90;99.90;;;;;;5109407;28;20035;-91
2023/12/31 12:16:39;;;;;;;1.17;0.73;;;8.80;99.90;;;;;;5101684;28;20575;-90
2023/12/31 12:19:05;;;;;;;1.63;0.60;;;8.90;99.90;;;;;;5089250;28;20036;-91
2023/12/31 12:21:31;;;;;;;1.65;0.65;;;8.90;99.90;;;;;;5093463;28;20499;-91
2023/12/31 12:23:57;;;;;;;2.70;1.23;;;9.00;99.90;;;;;;5062700;28;20043;-90
2023/12/31 12:26:25;;;;;;;0.65;0.47;;;9.00;99.90;;;;;;5092128;28;20533;-91
2023/12/31 12:28:53;;;;;;;2.17;0.85;;;9.00;99.90;;;;;;5092425;28;20090;-90
2023/12/31 12:31:19;;;;;;;1.80;0.75;;;9.00;99.90;;;;;;5092200;28;20046;-89
2023/12/31 12:33:53;;;;;;;1.08;0.63;;;8.90;99.90;;;;;;5085062;28;20028;-91
2023/12/31 12:36:21;;;;;;;3.63;0.80;;;8.90;99.90;;;;;;5091440;28;20044;-89
2023/12/31 12:38:48;;;;;;;6.28;1.40;;;8.90;99.90;;;;;;5090326;28;20124;-90
2023/12/31 12:41:23;;;;;;;4.35;1.17;;;9.00;99.90;;;;;;5075870;28;20097;-91
2023/12/31 12:44:05;;;;;;;6.85;1.75;;;9.10;99.90;;;;;;5078243;28;20124;-91
2023/12/31 12:46:32;;;;;;;2.42;0.80;;;9.30;99.90;;;;;;5073993;28;20035;-92
2023/12/31 12:48:58;;;;;;;2.47;0.90;;;9.50;99.90;;;;;;5063942;28;20512;-92
2023/12/31 12:51:24;;;;;;;3.03;1.23;;;9.50;99.90;;;;;;5076873;28;20653;-91